EGDR

RNAS Culdrose Airport

Helston, United Kingdom
METAR EGDR 241050Z 09010KT 9999 FEW028 14/08 Q1039 BLU NOSIG
Observed Flight Rules
Sep-24 @ 10:50 UTC (an hour ago) Visual Flight Rules
Wind Visibility Clouds
90° at 10 knots 10,000+ meters
  • Few at 2,800' AGL
Temperatures Readings
Current 14°C / 57°F
Dewpoint 8°C / 46°F
Humidity 67%
Altimeter 30.68" Hg
Pressure 1039 hPa
Elevation 82
METAR EGDR 241050Z 09010KT 9999 FEW028 14/08 Q1039 BLU NOSIG
Observed Flight Rules
Sep-24 @ 10:50 UTC
(an hour ago)
VFR
Wind Visibility
90° at 10 knots 10,000+ meters
Clouds
  • Few at 2,800' AGL
Temperature Dewpoint
14°C / 57°F 8°C / 46°F
Humidity Altimeter Pressure
67% 30.68" Hg 1039 hPa